Terminal Aerodrome Forecast
Issued by NWS

Home | Current Version | Previous Version | Text Only | Print | Product List | Glossary On
Versions: 1 2 3 4 5 6 7 8 9 10 11 12 13 14 15 16 17 18 19 20
000
FTUS46 KMFR 182327
TAFOTH
TAF
KOTH 182327Z 1900/1924 36025G32KT P6SM SKC
     FM190400 36017G24KT P6SM SKC
     FM190700 01008KT P6SM SKC
     FM191000 05003KT 5SM BR SCT002
     FM191900 35014G20KT P6SM SKC=

USA.gov is the U.S. government's official web portal to all federal, state and local government web resources and services.